createdAt,value
2022-10-02T00:04:57.961Z,49.30
2022-10-02T00:10:06.790Z,49.07
2022-10-02T00:15:20.823Z,49.43
2022-10-02T00:20:29.166Z,49.23
2022-10-02T00:25:38.098Z,48.50
2022-10-02T00:30:58.811Z,49.00
2022-10-02T00:36:18.989Z,49.47
2022-10-02T00:41:47.415Z,49.50
2022-10-02T00:46:59.640Z,48.90
2022-10-02T00:52:23.033Z,48.93
2022-10-02T00:57:40.072Z,49.57
2022-10-02T01:02:58.517Z,49.03
2022-10-02T01:08:04.703Z,49.20
2022-10-02T01:13:10.074Z,48.37
2022-10-02T01:18:16.911Z,49.18
2022-10-02T01:23:30.906Z,48.75
2022-10-02T01:28:36.476Z,48.70
2022-10-02T01:33:43.757Z,49.07
2022-10-02T01:38:51.919Z,48.60
2022-10-02T01:44:01.128Z,48.80
2022-10-02T01:49:12.963Z,49.57
2022-10-02T01:54:54.879Z,49.33
2022-10-02T02:00:09.319Z,49.17
2022-10-02T02:05:18.785Z,49.65
2022-10-02T02:10:51.095Z,49.13
2022-10-02T02:16:11.451Z,48.53
2022-10-02T02:21:23.277Z,49.10
2022-10-02T02:26:30.222Z,49.43
2022-10-02T02:31:38.230Z,49.23
2022-10-02T02:36:47.822Z,50.07
2022-10-02T02:41:55.910Z,49.33
2022-10-02T02:47:04.550Z,49.53
2022-10-02T02:52:12.672Z,49.40
2022-10-02T02:57:20.560Z,49.63
2022-10-02T03:02:26.997Z,48.43
2022-10-02T03:07:32.534Z,49.27
2022-10-02T03:12:58.990Z,49.73
2022-10-02T03:18:22.786Z,48.28
2022-10-02T03:23:43.191Z,48.85
2022-10-02T03:28:55.885Z,48.80
2022-10-02T03:34:01.385Z,49.10
2022-10-02T03:39:25.866Z,48.87
2022-10-02T03:44:16.624Z,48.63
2022-10-02T03:49:21.557Z,49.67
2022-10-02T03:54:30.601Z,49.17
2022-10-02T03:59:45.275Z,48.77
2022-10-02T04:04:59.777Z,49.30
2022-10-02T04:10:20.572Z,49.37
2022-10-02T04:15:35.663Z,49.27
2022-10-02T04:20:52.688Z,49.43
2022-10-02T04:26:25.081Z,48.73
2022-10-02T04:31:30.890Z,48.70
2022-10-02T04:36:45.635Z,49.27
2022-10-02T04:41:54.551Z,50.10
2022-10-02T04:47:08.636Z,48.70
2022-10-02T04:52:40.310Z,49.75
2022-10-02T04:57:57.959Z,48.50
2022-10-02T05:03:15.808Z,48.43
2022-10-02T05:08:36.118Z,48.47
2022-10-02T05:13:59.567Z,48.17
2022-10-02T05:19:31.687Z,48.50
2022-10-02T05:24:57.934Z,49.13
2022-10-02T05:30:14.659Z,48.80
2022-10-02T05:35:25.608Z,49.27
2022-10-02T05:40:34.235Z,48.77
2022-10-02T05:45:42.994Z,49.03
2022-10-02T05:51:06.828Z,48.67
2022-10-02T05:56:17.311Z,48.40
2022-10-02T06:01:26.089Z,48.63
2022-10-02T06:06:34.980Z,49.27
2022-10-02T06:12:14.823Z,48.23
2022-10-02T06:17:32.487Z,49.43
2022-10-02T06:22:53.415Z,48.85
2022-10-02T06:28:05.453Z,48.70
2022-10-02T06:33:23.185Z,49.63
2022-10-02T06:38:57.415Z,48.45
2022-10-02T06:44:18.337Z,49.80
2022-10-02T06:49:29.491Z,49.13
2022-10-02T06:54:49.943Z,49.93
2022-10-02T07:00:08.327Z,49.47
2022-10-02T07:05:45.923Z,49.23
2022-10-02T07:11:01.519Z,49.17
2022-10-02T07:16:30.065Z,49.80
2022-10-02T07:22:25.819Z,50.10
2022-10-02T07:27:23.100Z,49.97
2022-10-02T07:32:47.935Z,50.73
2022-10-02T07:38:16.755Z,50.67
2022-10-02T07:43:42.395Z,49.95
2022-10-02T07:48:59.989Z,50.93
2022-10-02T07:54:29.730Z,51.07
2022-10-02T07:59:37.016Z,50.43
2022-10-02T08:04:43.178Z,51.77
2022-10-02T08:09:52.095Z,50.97
2022-10-02T08:14:59.700Z,50.37
2022-10-02T08:20:29.165Z,50.73
2022-10-02T08:25:35.715Z,51.70
2022-10-02T08:30:43.225Z,50.70
2022-10-02T08:36:00.969Z,50.60
2022-10-02T08:41:19.647Z,51.57
2022-10-02T08:46:56.849Z,51.17
2022-10-02T08:52:33.468Z,51.33
2022-10-02T08:57:45.145Z,50.83
2022-10-02T09:03:10.812Z,51.97
2022-10-02T09:08:46.754Z,51.07
2022-10-02T09:13:59.898Z,52.30
2022-10-02T09:19:08.516Z,51.50
2022-10-02T09:24:35.191Z,51.17
2022-10-02T09:30:00.619Z,51.18
2022-10-02T09:35:41.957Z,51.43
2022-10-02T09:40:49.908Z,51.40
2022-10-02T09:46:32.271Z,51.50
2022-10-02T09:52:02.472Z,51.43
2022-10-02T09:57:40.334Z,51.63
2022-10-02T10:03:05.965Z,52.10
2022-10-02T10:08:39.481Z,51.97
2022-10-02T10:14:04.418Z,52.07
2022-10-02T10:19:31.605Z,53.00
2022-10-02T10:25:03.320Z,51.92
2022-10-02T10:30:33.281Z,51.53
2022-10-02T10:35:44.377Z,52.30
2022-10-02T10:41:15.460Z,51.87
2022-10-02T10:46:46.091Z,52.10
2022-10-02T10:52:10.974Z,51.80
2022-10-02T10:57:20.364Z,51.70
2022-10-02T11:02:36.112Z,52.00
2022-10-02T11:08:07.885Z,52.20
2022-10-02T11:13:19.345Z,51.73
2022-10-02T11:18:48.355Z,52.10
2022-10-02T11:24:09.296Z,52.43
2022-10-02T11:29:34.185Z,52.00
2022-10-02T11:34:48.263Z,51.97
2022-10-02T11:40:20.349Z,51.60
2022-10-02T11:45:43.760Z,51.92
2022-10-02T11:51:16.114Z,51.57
2022-10-02T11:56:24.547Z,52.20
2022-10-02T12:01:48.032Z,51.63
2022-10-02T12:07:14.294Z,51.87
2022-10-02T12:12:58.139Z,52.03
2022-10-02T12:18:22.211Z,51.90
2022-10-02T12:24:09.095Z,51.77
2022-10-02T12:29:21.161Z,51.10
2022-10-02T12:34:48.664Z,50.87
2022-10-02T12:40:06.002Z,50.80
2022-10-02T12:45:32.694Z,50.87
2022-10-02T12:56:21.169Z,50.80
2022-10-02T13:01:42.237Z,50.10
2022-10-02T13:07:23.302Z,50.35
2022-10-02T13:12:38.065Z,50.87
2022-10-02T13:18:06.007Z,51.03
2022-10-02T13:23:21.037Z,51.67
2022-10-02T13:28:46.775Z,51.35
2022-10-02T13:34:15.725Z,51.13
2022-10-02T13:39:57.917Z,51.73
2022-10-02T13:45:38.471Z,51.03
2022-10-02T13:50:52.422Z,50.77
2022-10-02T13:56:04.308Z,50.40
2022-10-02T14:01:23.746Z,51.57
2022-10-02T14:06:48.681Z,51.13
2022-10-02T14:12:22.577Z,50.53
2022-10-02T14:17:43.561Z,50.93
2022-10-02T14:23:16.118Z,50.80
2022-10-02T14:28:33.105Z,50.50
2022-10-02T14:33:48.075Z,50.87
2022-10-02T14:39:02.915Z,50.63
2022-10-02T14:44:27.935Z,50.80
2022-10-02T14:49:52.656Z,50.87
2022-10-02T14:55:28.624Z,50.57
2022-10-02T15:01:01.783Z,50.53
2022-10-02T15:06:12.928Z,50.53
2022-10-02T15:11:27.303Z,50.17
2022-10-02T15:16:55.441Z,50.90
2022-10-02T15:22:06.587Z,51.43
2022-10-02T15:27:40.617Z,50.70
2022-10-02T15:33:11.067Z,50.60
2022-10-02T15:38:33.731Z,51.57
2022-10-02T15:44:15.854Z,50.27
2022-10-02T15:49:46.962Z,50.73
2022-10-02T15:55:10.703Z,51.10
2022-10-02T16:00:21.108Z,52.43
2022-10-02T16:05:30.894Z,51.97
2022-10-02T16:10:57.599Z,54.27
2022-10-02T16:16:18.564Z,51.05
2022-10-02T16:21:36.175Z,49.87
2022-10-02T16:27:03.955Z,50.70
2022-10-02T16:32:38.192Z,51.53
2022-10-02T16:37:49.949Z,50.70
2022-10-02T16:43:16.739Z,50.80
2022-10-02T16:48:30.049Z,50.13
2022-10-02T16:53:43.967Z,51.33
2022-10-02T16:59:15.517Z,51.03
2022-10-02T17:04:24.689Z,50.90
2022-10-02T17:09:45.194Z,50.53
2022-10-02T17:15:02.033Z,51.27
2022-10-02T17:20:19.802Z,52.27
2022-10-02T17:25:37.140Z,53.35
2022-10-02T17:30:48.723Z,51.20
2022-10-02T17:36:01.609Z,51.77
2022-10-02T17:41:19.513Z,53.33
2022-10-02T17:46:34.171Z,53.05
2022-10-02T17:51:52.831Z,53.70
2022-10-02T17:56:59.443Z,51.47
2022-10-02T18:02:25.914Z,52.27
2022-10-02T18:07:44.054Z,53.15
2022-10-02T18:13:00.547Z,50.50
2022-10-02T18:18:18.942Z,50.83
2022-10-02T18:23:49.366Z,50.33
2022-10-02T18:29:08.225Z,50.77
2022-10-02T18:34:43.646Z,50.50
2022-10-02T18:40:04.857Z,50.33
2022-10-02T18:45:32.564Z,50.33
2022-10-02T18:51:08.408Z,50.23
2022-10-02T18:56:15.818Z,49.77
2022-10-02T19:01:51.543Z,50.73
2022-10-02T19:07:18.246Z,49.50
2022-10-02T19:12:27.906Z,50.90
2022-10-02T19:17:36.028Z,49.60
2022-10-02T19:22:44.849Z,49.40
2022-10-02T19:27:54.996Z,50.27
2022-10-02T19:33:08.714Z,50.13
2022-10-02T19:38:29.513Z,49.58
2022-10-02T19:43:37.448Z,50.97
2022-10-02T19:48:46.716Z,50.23
2022-10-02T19:53:58.066Z,50.10
2022-10-02T19:59:15.324Z,51.13
2022-10-02T20:04:23.851Z,49.73
2022-10-02T20:09:35.391Z,49.80
2022-10-02T20:14:57.406Z,50.23
2022-10-02T20:20:08.102Z,50.80
2022-10-02T20:25:34.746Z,49.87
2022-10-02T20:30:47.171Z,48.68
2022-10-02T20:36:05.144Z,49.40
2022-10-02T20:41:23.897Z,50.05
2022-10-02T20:46:47.779Z,49.33
2022-10-02T20:52:24.792Z,49.83
2022-10-02T21:03:02.568Z,49.80
2022-10-02T21:08:34.737Z,50.03
2022-10-02T21:14:03.092Z,49.87
2022-10-02T21:19:32.960Z,49.53
2022-10-02T21:24:51.017Z,49.47
2022-10-02T21:30:16.959Z,50.10
2022-10-02T21:35:42.213Z,48.57
2022-10-02T21:41:02.412Z,49.13
2022-10-02T21:46:30.765Z,49.20
2022-10-02T21:51:59.087Z,49.87
2022-10-02T21:57:30.861Z,49.02
2022-10-02T22:02:41.951Z,50.00
2022-10-02T22:08:14.975Z,50.03
2022-10-02T22:13:25.541Z,49.17
2022-10-02T22:18:51.998Z,49.07
2022-10-02T22:24:34.327Z,49.57
2022-10-02T22:29:57.842Z,49.17
2022-10-02T22:35:31.716Z,50.40
2022-10-02T22:40:56.275Z,50.30
2022-10-02T22:46:08.505Z,50.37
2022-10-02T22:51:22.626Z,50.93
2022-10-02T22:56:33.815Z,49.75
2022-10-02T23:01:48.456Z,49.67
2022-10-02T23:07:02.862Z,50.17
2022-10-02T23:12:35.875Z,50.57
2022-10-02T23:17:56.484Z,50.23
2022-10-02T23:23:08.298Z,50.50
2022-10-02T23:28:25.990Z,50.23
2022-10-02T23:33:35.195Z,50.10
2022-10-02T23:38:58.370Z,49.83
2022-10-02T23:44:40.799Z,50.20
2022-10-02T23:49:52.970Z,50.70
2022-10-02T23:55:16.476Z,50.83
